sensor_id;sensor_type;location;lat;lon;timestamp;temperature;humidity
49132;DHT22;35149;51.196;6.204;2022-10-31T00:01:59;18.00;72.10
49132;DHT22;35149;51.196;6.204;2022-10-31T00:04:28;17.90;72.00
49132;DHT22;35149;51.196;6.204;2022-10-31T00:06:57;17.90;72.10
49132;DHT22;35149;51.196;6.204;2022-10-31T00:09:24;17.90;72.10
49132;DHT22;35149;51.196;6.204;2022-10-31T00:11:50;17.90;72.10
49132;DHT22;35149;51.196;6.204;2022-10-31T00:14:17;17.90;72.10
49132;DHT22;35149;51.196;6.204;2022-10-31T00:16:44;17.90;72.20
49132;DHT22;35149;51.196;6.204;2022-10-31T00:19:10;17.90;72.20
49132;DHT22;35149;51.196;6.204;2022-10-31T00:21:37;17.90;72.30
49132;DHT22;35149;51.196;6.204;2022-10-31T00:24:06;17.90;72.30
49132;DHT22;35149;51.196;6.204;2022-10-31T00:26:36;17.90;72.40
49132;DHT22;35149;51.196;6.204;2022-10-31T00:29:03;17.90;72.30
49132;DHT22;35149;51.196;6.204;2022-10-31T00:31:29;17.90;72.40
49132;DHT22;35149;51.196;6.204;2022-10-31T00:33:57;17.90;72.30
49132;DHT22;35149;51.196;6.204;2022-10-31T00:36:28;17.90;72.20
49132;DHT22;35149;51.196;6.204;2022-10-31T00:38:58;17.90;72.10
49132;DHT22;35149;51.196;6.204;2022-10-31T00:41:25;17.80;71.60
49132;DHT22;35149;51.196;6.204;2022-10-31T00:43:51;17.80;71.40
49132;DHT22;35149;51.196;6.204;2022-10-31T00:46:18;17.80;71.30
49132;DHT22;35149;51.196;6.204;2022-10-31T00:48:45;17.70;71.10
49132;DHT22;35149;51.196;6.204;2022-10-31T00:51:11;17.70;71.00
49132;DHT22;35149;51.196;6.204;2022-10-31T00:53:41;17.60;70.80
49132;DHT22;35149;51.196;6.204;2022-10-31T00:56:10;17.50;70.80
49132;DHT22;35149;51.196;6.204;2022-10-31T00:58:37;17.50;70.70
49132;DHT22;35149;51.196;6.204;2022-10-31T01:01:08;17.40;70.40
49132;DHT22;35149;51.196;6.204;2022-10-31T01:03:35;17.40;70.40
49132;DHT22;35149;51.196;6.204;2022-10-31T01:06:13;17.30;70.40
49132;DHT22;35149;51.196;6.204;2022-10-31T01:08:41;17.30;70.50
49132;DHT22;35149;51.196;6.204;2022-10-31T01:11:17;17.30;70.60
49132;DHT22;35149;51.196;6.204;2022-10-31T01:13:47;17.20;70.10
49132;DHT22;35149;51.196;6.204;2022-10-31T01:16:16;17.10;70.20
49132;DHT22;35149;51.196;6.204;2022-10-31T01:18:45;17.00;70.30
49132;DHT22;35149;51.196;6.204;2022-10-31T01:21:16;17.00;70.30
49132;DHT22;35149;51.196;6.204;2022-10-31T01:23:48;16.90;70.40
49132;DHT22;35149;51.196;6.204;2022-10-31T01:26:29;16.90;70.40
49132;DHT22;35149;51.196;6.204;2022-10-31T01:29:04;16.80;70.50
49132;DHT22;35149;51.196;6.204;2022-10-31T01:31:37;16.80;70.40
49132;DHT22;35149;51.196;6.204;2022-10-31T01:34:13;16.70;70.40
49132;DHT22;35149;51.196;6.204;2022-10-31T01:36:42;16.70;70.60
49132;DHT22;35149;51.196;6.204;2022-10-31T01:39:13;16.70;70.60
49132;DHT22;35149;51.196;6.204;2022-10-31T01:41:45;16.60;71.00
49132;DHT22;35149;51.196;6.204;2022-10-31T01:46:58;16.60;71.00
49132;DHT22;35149;51.196;6.204;2022-10-31T01:52:16;16.60;71.40
49132;DHT22;35149;51.196;6.204;2022-10-31T01:55:03;16.50;71.20
49132;DHT22;35149;51.196;6.204;2022-10-31T01:57:38;16.60;71.40
49132;DHT22;35149;51.196;6.204;2022-10-31T02:00:10;16.50;71.20
49132;DHT22;35149;51.196;6.204;2022-10-31T02:02:42;16.50;71.10
49132;DHT22;35149;51.196;6.204;2022-10-31T02:05:17;16.50;71.10
49132;DHT22;35149;51.196;6.204;2022-10-31T02:10:27;16.40;70.80
49132;DHT22;35149;51.196;6.204;2022-10-31T02:12:56;16.40;70.70
49132;DHT22;35149;51.196;6.204;2022-10-31T02:15:25;16.40;70.60
49132;DHT22;35149;51.196;6.204;2022-10-31T02:17:57;16.40;70.60
49132;DHT22;35149;51.196;6.204;2022-10-31T02:20:45;16.40;70.60
49132;DHT22;35149;51.196;6.204;2022-10-31T02:23:42;16.40;70.70
49132;DHT22;35149;51.196;6.204;2022-10-31T02:29:41;16.30;70.80
49132;DHT22;35149;51.196;6.204;2022-10-31T02:32:30;16.20;70.70
49132;DHT22;35149;51.196;6.204;2022-10-31T02:35:11;16.20;70.60
49132;DHT22;35149;51.196;6.204;2022-10-31T02:37:56;16.20;70.70
49132;DHT22;35149;51.196;6.204;2022-10-31T02:40:28;16.20;70.80
49132;DHT22;35149;51.196;6.204;2022-10-31T02:43:35;16.20;70.80
49132;DHT22;35149;51.196;6.204;2022-10-31T02:46:13;16.20;71.00
49132;DHT22;35149;51.196;6.204;2022-10-31T02:48:44;16.20;71.00
49132;DHT22;35149;51.196;6.204;2022-10-31T02:51:15;16.10;71.20
49132;DHT22;35149;51.196;6.204;2022-10-31T02:53:47;16.10;71.30
49132;DHT22;35149;51.196;6.204;2022-10-31T02:56:19;16.10;71.10
49132;DHT22;35149;51.196;6.204;2022-10-31T02:58:51;16.10;71.10
49132;DHT22;35149;51.196;6.204;2022-10-31T03:01:31;16.10;71.10
49132;DHT22;35149;51.196;6.204;2022-10-31T03:10:08;16.00;70.60
49132;DHT22;35149;51.196;6.204;2022-10-31T03:13:29;16.00;70.40
49132;DHT22;35149;51.196;6.204;2022-10-31T03:15:51;16.00;70.40
49132;DHT22;35149;51.196;6.204;2022-10-31T03:18:29;15.90;70.10
49132;DHT22;35149;51.196;6.204;2022-10-31T03:21:14;15.90;70.10
49132;DHT22;35149;51.196;6.204;2022-10-31T03:23:44;15.80;70.00
49132;DHT22;35149;51.196;6.204;2022-10-31T03:26:20;15.80;70.10
49132;DHT22;35149;51.196;6.204;2022-10-31T03:28:55;15.80;70.30
49132;DHT22;35149;51.196;6.204;2022-10-31T03:31:28;15.70;70.40
49132;DHT22;35149;51.196;6.204;2022-10-31T03:34:01;15.70;70.50
49132;DHT22;35149;51.196;6.204;2022-10-31T03:36:33;15.70;70.60
49132;DHT22;35149;51.196;6.204;2022-10-31T03:39:04;15.70;70.60
49132;DHT22;35149;51.196;6.204;2022-10-31T03:41:41;15.60;70.60
49132;DHT22;35149;51.196;6.204;2022-10-31T03:44:17;15.60;70.60
49132;DHT22;35149;51.196;6.204;2022-10-31T03:46:55;15.60;70.60
49132;DHT22;35149;51.196;6.204;2022-10-31T03:49:25;15.60;70.50
49132;DHT22;35149;51.196;6.204;2022-10-31T03:52:19;15.50;70.50
49132;DHT22;35149;51.196;6.204;2022-10-31T03:54:58;15.50;70.60
49132;DHT22;35149;51.196;6.204;2022-10-31T03:57:43;15.50;70.50
49132;DHT22;35149;51.196;6.204;2022-10-31T04:00:15;15.50;70.60
49132;DHT22;35149;51.196;6.204;2022-10-31T04:05:31;15.40;70.40
49132;DHT22;35149;51.196;6.204;2022-10-31T04:08:03;15.40;70.40
49132;DHT22;35149;51.196;6.204;2022-10-31T04:10:37;15.40;70.50
49132;DHT22;35149;51.196;6.204;2022-10-31T04:13:08;15.40;70.70
49132;DHT22;35149;51.196;6.204;2022-10-31T04:15:44;15.40;70.90
49132;DHT22;35149;51.196;6.204;2022-10-31T04:18:16;15.40;71.00
49132;DHT22;35149;51.196;6.204;2022-10-31T04:20:42;15.40;71.30
49132;DHT22;35149;51.196;6.204;2022-10-31T04:23:22;15.40;71.60
49132;DHT22;35149;51.196;6.204;2022-10-31T04:25:52;15.50;72.10
49132;DHT22;35149;51.196;6.204;2022-10-31T04:28:23;15.40;72.00
49132;DHT22;35149;51.196;6.204;2022-10-31T04:30:53;15.50;72.10
49132;DHT22;35149;51.196;6.204;2022-10-31T04:33:22;15.40;72.00
49132;DHT22;35149;51.196;6.204;2022-10-31T04:35:49;15.50;71.90
49132;DHT22;35149;51.196;6.204;2022-10-31T04:38:20;15.50;72.00
49132;DHT22;35149;51.196;6.204;2022-10-31T04:40:48;15.50;71.90
49132;DHT22;35149;51.196;6.204;2022-10-31T04:43:34;15.50;71.90
49132;DHT22;35149;51.196;6.204;2022-10-31T04:46:03;15.50;71.70
49132;DHT22;35149;51.196;6.204;2022-10-31T04:48:30;15.50;71.80
49132;DHT22;35149;51.196;6.204;2022-10-31T04:51:02;15.50;71.70
49132;DHT22;35149;51.196;6.204;2022-10-31T04:53:29;15.50;71.60
49132;DHT22;35149;51.196;6.204;2022-10-31T04:56:28;15.50;71.60
49132;DHT22;35149;51.196;6.204;2022-10-31T04:58:58;15.40;71.40
49132;DHT22;35149;51.196;6.204;2022-10-31T05:01:34;15.40;71.50
49132;DHT22;35149;51.196;6.204;2022-10-31T05:04:02;15.40;71.50
49132;DHT22;35149;51.196;6.204;2022-10-31T05:06:31;15.40;71.50
49132;DHT22;35149;51.196;6.204;2022-10-31T05:09:00;15.60;71.70
49132;DHT22;35149;51.196;6.204;2022-10-31T05:11:29;15.40;71.60
49132;DHT22;35149;51.196;6.204;2022-10-31T05:14:08;15.40;71.70
49132;DHT22;35149;51.196;6.204;2022-10-31T05:16:56;15.40;71.70
49132;DHT22;35149;51.196;6.204;2022-10-31T05:19:57;15.40;71.70
49132;DHT22;35149;51.196;6.204;2022-10-31T05:22:57;15.50;71.70
49132;DHT22;35149;51.196;6.204;2022-10-31T05:25:28;15.40;71.60
49132;DHT22;35149;51.196;6.204;2022-10-31T05:27:55;15.40;71.50
49132;DHT22;35149;51.196;6.204;2022-10-31T05:30:26;15.40;71.50
49132;DHT22;35149;51.196;6.204;2022-10-31T05:32:53;15.40;71.40
49132;DHT22;35149;51.196;6.204;2022-10-31T05:35:39;15.40;71.20
49132;DHT22;35149;51.196;6.204;2022-10-31T05:38:30;15.40;71.20
49132;DHT22;35149;51.196;6.204;2022-10-31T05:41:04;15.30;71.10
49132;DHT22;35149;51.196;6.204;2022-10-31T05:43:32;15.30;71.00
49132;DHT22;35149;51.196;6.204;2022-10-31T05:46:02;15.30;70.90
49132;DHT22;35149;51.196;6.204;2022-10-31T05:48:51;15.30;70.80
49132;DHT22;35149;51.196;6.204;2022-10-31T05:51:45;15.20;70.80
49132;DHT22;35149;51.196;6.204;2022-10-31T05:54:12;15.20;70.80
49132;DHT22;35149;51.196;6.204;2022-10-31T05:56:43;15.10;70.80
49132;DHT22;35149;51.196;6.204;2022-10-31T05:59:12;15.10;70.90
49132;DHT22;35149;51.196;6.204;2022-10-31T06:01:41;15.10;71.00
49132;DHT22;35149;51.196;6.204;2022-10-31T06:04:26;15.10;70.90
49132;DHT22;35149;51.196;6.204;2022-10-31T06:06:57;15.10;71.00
49132;DHT22;35149;51.196;6.204;2022-10-31T06:09:24;15.00;70.90
49132;DHT22;35149;51.196;6.204;2022-10-31T06:11:53;15.00;70.80
49132;DHT22;35149;51.196;6.204;2022-10-31T06:14:25;15.00;70.80
49132;DHT22;35149;51.196;6.204;2022-10-31T06:16:57;15.00;70.90
49132;DHT22;35149;51.196;6.204;2022-10-31T06:19:53;14.90;70.80
49132;DHT22;35149;51.196;6.204;2022-10-31T06:22:24;14.90;70.70
49132;DHT22;35149;51.196;6.204;2022-10-31T06:24:53;14.90;70.70
49132;DHT22;35149;51.196;6.204;2022-10-31T06:27:29;14.90;70.70
49132;DHT22;35149;51.196;6.204;2022-10-31T06:29:58;14.80;70.70
49132;DHT22;35149;51.196;6.204;2022-10-31T06:35:09;14.80;70.60
49132;DHT22;35149;51.196;6.204;2022-10-31T06:37:36;14.80;70.70
49132;DHT22;35149;51.196;6.204;2022-10-31T06:40:22;14.80;70.60
49132;DHT22;35149;51.196;6.204;2022-10-31T06:43:09;14.70;70.60
49132;DHT22;35149;51.196;6.204;2022-10-31T06:45:39;14.70;70.70
49132;DHT22;35149;51.196;6.204;2022-10-31T06:48:20;14.70;70.70
49132;DHT22;35149;51.196;6.204;2022-10-31T06:51:14;14.70;70.90
49132;DHT22;35149;51.196;6.204;2022-10-31T06:53:45;14.60;70.70
49132;DHT22;35149;51.196;6.204;2022-10-31T06:56:17;14.60;70.70
49132;DHT22;35149;51.196;6.204;2022-10-31T06:58:47;14.60;70.70
49132;DHT22;35149;51.196;6.204;2022-10-31T07:01:25;14.60;70.90
49132;DHT22;35149;51.196;6.204;2022-10-31T07:03:53;14.60;70.80
49132;DHT22;35149;51.196;6.204;2022-10-31T07:06:19;14.60;70.80
49132;DHT22;35149;51.196;6.204;2022-10-31T07:08:54;14.50;70.80
49132;DHT22;35149;51.196;6.204;2022-10-31T07:11:25;14.60;70.90
49132;DHT22;35149;51.196;6.204;2022-10-31T07:13:57;14.60;70.90
49132;DHT22;35149;51.196;6.204;2022-10-31T07:16:25;14.50;71.00
49132;DHT22;35149;51.196;6.204;2022-10-31T07:18:52;14.50;71.00
49132;DHT22;35149;51.196;6.204;2022-10-31T07:21:21;14.50;71.10
49132;DHT22;35149;51.196;6.204;2022-10-31T07:23:48;14.50;71.20
49132;DHT22;35149;51.196;6.204;2022-10-31T07:26:35;14.50;71.40
49132;DHT22;35149;51.196;6.204;2022-10-31T07:29:04;14.50;71.50
49132;DHT22;35149;51.196;6.204;2022-10-31T07:31:31;14.60;71.60
49132;DHT22;35149;51.196;6.204;2022-10-31T07:34:03;14.60;71.60
49132;DHT22;35149;51.196;6.204;2022-10-31T07:37:02;14.60;71.60
49132;DHT22;35149;51.196;6.204;2022-10-31T07:39:32;14.70;71.60
49132;DHT22;35149;51.196;6.204;2022-10-31T07:42:04;14.70;71.90
49132;DHT22;35149;51.196;6.204;2022-10-31T07:44:31;14.70;72.10
49132;DHT22;35149;51.196;6.204;2022-10-31T07:47:17;14.70;72.10
49132;DHT22;35149;51.196;6.204;2022-10-31T07:50:02;14.70;72.20
49132;DHT22;35149;51.196;6.204;2022-10-31T07:53:05;14.70;72.30
49132;DHT22;35149;51.196;6.204;2022-10-31T07:55:53;14.80;72.60
49132;DHT22;35149;51.196;6.204;2022-10-31T07:58:24;14.80;72.30
49132;DHT22;35149;51.196;6.204;2022-10-31T08:00:53;14.80;72.40
49132;DHT22;35149;51.196;6.204;2022-10-31T08:03:33;14.80;72.40
49132;DHT22;35149;51.196;6.204;2022-10-31T08:06:18;14.80;72.60
49132;DHT22;35149;51.196;6.204;2022-10-31T08:09:09;14.90;72.70
49132;DHT22;35149;51.196;6.204;2022-10-31T08:11:40;14.90;72.80
49132;DHT22;35149;51.196;6.204;2022-10-31T08:14:06;15.00;73.10
49132;DHT22;35149;51.196;6.204;2022-10-31T08:16:37;15.00;73.40
49132;DHT22;35149;51.196;6.204;2022-10-31T08:19:05;15.10;73.90
49132;DHT22;35149;51.196;6.204;2022-10-31T08:21:36;15.20;74.20
49132;DHT22;35149;51.196;6.204;2022-10-31T08:24:07;15.20;74.40
49132;DHT22;35149;51.196;6.204;2022-10-31T08:26:37;15.40;75.00
49132;DHT22;35149;51.196;6.204;2022-10-31T08:29:09;15.50;75.20
49132;DHT22;35149;51.196;6.204;2022-10-31T08:31:37;15.60;75.20
49132;DHT22;35149;51.196;6.204;2022-10-31T08:34:30;15.70;75.30
49132;DHT22;35149;51.196;6.204;2022-10-31T08:37:15;15.90;75.20
49132;DHT22;35149;51.196;6.204;2022-10-31T08:39:54;16.00;75.20
49132;DHT22;35149;51.196;6.204;2022-10-31T08:42:23;16.10;75.00
49132;DHT22;35149;51.196;6.204;2022-10-31T08:44:52;16.20;74.90
49132;DHT22;35149;51.196;6.204;2022-10-31T08:47:24;16.30;74.80
49132;DHT22;35149;51.196;6.204;2022-10-31T08:49:52;16.40;74.60
49132;DHT22;35149;51.196;6.204;2022-10-31T08:52:22;16.50;74.60
49132;DHT22;35149;51.196;6.204;2022-10-31T08:55:10;16.60;74.70
49132;DHT22;35149;51.196;6.204;2022-10-31T08:58:07;16.60;74.30
49132;DHT22;35149;51.196;6.204;2022-10-31T09:00:42;16.70;74.20
49132;DHT22;35149;51.196;6.204;2022-10-31T09:03:27;16.80;74.10
49132;DHT22;35149;51.196;6.204;2022-10-31T09:05:58;16.90;74.20
49132;DHT22;35149;51.196;6.204;2022-10-31T09:08:34;16.90;73.80
49132;DHT22;35149;51.196;6.204;2022-10-31T09:11:04;16.90;73.60
49132;DHT22;35149;51.196;6.204;2022-10-31T09:14:04;17.00;73.60
49132;DHT22;35149;51.196;6.204;2022-10-31T09:16:51;17.00;73.40
49132;DHT22;35149;51.196;6.204;2022-10-31T09:19:23;17.00;73.40
49132;DHT22;35149;51.196;6.204;2022-10-31T09:21:52;17.00;73.40
49132;DHT22;35149;51.196;6.204;2022-10-31T09:24:21;17.10;73.60
49132;DHT22;35149;51.196;6.204;2022-10-31T09:26:50;17.10;73.60
49132;DHT22;35149;51.196;6.204;2022-10-31T09:29:22;17.10;73.60
49132;DHT22;35149;51.196;6.204;2022-10-31T09:31:56;17.10;73.60
49132;DHT22;35149;51.196;6.204;2022-10-31T09:34:32;17.20;73.70
49132;DHT22;35149;51.196;6.204;2022-10-31T09:37:10;17.20;73.70
49132;DHT22;35149;51.196;6.204;2022-10-31T09:39:40;17.30;73.90
49132;DHT22;35149;51.196;6.204;2022-10-31T09:48:01;17.40;74.10
49132;DHT22;35149;51.196;6.204;2022-10-31T09:50:49;17.50;74.10
49132;DHT22;35149;51.196;6.204;2022-10-31T09:53:50;17.60;73.90
49132;DHT22;35149;51.196;6.204;2022-10-31T09:56:22;17.60;73.80
49132;DHT22;35149;51.196;6.204;2022-10-31T09:58:55;17.70;73.50
49132;DHT22;35149;51.196;6.204;2022-10-31T10:04:26;17.90;73.40
49132;DHT22;35149;51.196;6.204;2022-10-31T10:07:29;17.90;73.20
49132;DHT22;35149;51.196;6.204;2022-10-31T10:10:45;18.00;72.90
49132;DHT22;35149;51.196;6.204;2022-10-31T10:13:57;18.10;72.70
49132;DHT22;35149;51.196;6.204;2022-10-31T10:25:22;18.50;72.00
49132;DHT22;35149;51.196;6.204;2022-10-31T10:30:42;18.60;71.70
49132;DHT22;35149;51.196;6.204;2022-10-31T10:36:05;18.80;71.50
49132;DHT22;35149;51.196;6.204;2022-10-31T10:39:16;18.80;71.20
49132;DHT22;35149;51.196;6.204;2022-10-31T10:41:49;18.90;70.80
49132;DHT22;35149;51.196;6.204;2022-10-31T10:44:44;18.90;70.70
49132;DHT22;35149;51.196;6.204;2022-10-31T10:47:43;19.00;70.30
49132;DHT22;35149;51.196;6.204;2022-10-31T10:50:17;19.10;70.40
49132;DHT22;35149;51.196;6.204;2022-10-31T10:53:17;19.10;70.20
49132;DHT22;35149;51.196;6.204;2022-10-31T10:56:32;19.20;70.40
49132;DHT22;35149;51.196;6.204;2022-10-31T10:59:11;19.20;69.90
49132;DHT22;35149;51.196;6.204;2022-10-31T11:01:44;19.30;69.90
49132;DHT22;35149;51.196;6.204;2022-10-31T11:04:29;19.30;69.90
49132;DHT22;35149;51.196;6.204;2022-10-31T11:07:04;19.40;69.80
49132;DHT22;35149;51.196;6.204;2022-10-31T11:09:33;19.50;69.50
49132;DHT22;35149;51.196;6.204;2022-10-31T11:12:07;19.50;69.60
49132;DHT22;35149;51.196;6.204;2022-10-31T11:14:45;19.60;69.60
49132;DHT22;35149;51.196;6.204;2022-10-31T11:17:25;19.70;68.90
49132;DHT22;35149;51.196;6.204;2022-10-31T11:22:48;19.90;68.80
49132;DHT22;35149;51.196;6.204;2022-10-31T11:25:24;19.90;68.60
49132;DHT22;35149;51.196;6.204;2022-10-31T11:28:08;19.90;68.30
49132;DHT22;35149;51.196;6.204;2022-10-31T11:30:43;20.00;68.00
49132;DHT22;35149;51.196;6.204;2022-10-31T11:33:31;20.00;67.80
49132;DHT22;35149;51.196;6.204;2022-10-31T11:35:59;20.10;67.60
49132;DHT22;35149;51.196;6.204;2022-10-31T11:38:34;20.10;67.70
49132;DHT22;35149;51.196;6.204;2022-10-31T11:41:17;20.10;67.50
49132;DHT22;35149;51.196;6.204;2022-10-31T11:44:00;20.20;67.50
49132;DHT22;35149;51.196;6.204;2022-10-31T11:49:02;20.30;67.10
49132;DHT22;35149;51.196;6.204;2022-10-31T11:51:32;20.30;67.40
49132;DHT22;35149;51.196;6.204;2022-10-31T11:54:04;20.40;67.00
49132;DHT22;35149;51.196;6.204;2022-10-31T11:56:41;20.40;66.80
49132;DHT22;35149;51.196;6.204;2022-10-31T11:59:32;20.40;66.20
49132;DHT22;35149;51.196;6.204;2022-10-31T12:02:18;20.50;66.00
49132;DHT22;35149;51.196;6.204;2022-10-31T12:04:52;20.60;66.00
49132;DHT22;35149;51.196;6.204;2022-10-31T12:07:26;20.60;66.10
49132;DHT22;35149;51.196;6.204;2022-10-31T12:09:54;20.70;66.00
49132;DHT22;35149;51.196;6.204;2022-10-31T12:20:47;20.80;65.30
49132;DHT22;35149;51.196;6.204;2022-10-31T12:26:26;20.90;65.30
49132;DHT22;35149;51.196;6.204;2022-10-31T12:34:29;21.10;65.00
49132;DHT22;35149;51.196;6.204;2022-10-31T12:37:26;21.10;64.80
49132;DHT22;35149;51.196;6.204;2022-10-31T12:40:29;21.20;64.50
49132;DHT22;35149;51.196;6.204;2022-10-31T12:45:55;21.30;63.90
49132;DHT22;35149;51.196;6.204;2022-10-31T12:51:47;21.40;63.70
49132;DHT22;35149;51.196;6.204;2022-10-31T12:57:02;21.40;63.70
49132;DHT22;35149;51.196;6.204;2022-10-31T12:59:37;21.50;63.30
49132;DHT22;35149;51.196;6.204;2022-10-31T13:02:28;21.50;63.40
49132;DHT22;35149;51.196;6.204;2022-10-31T13:05:16;21.50;63.00
49132;DHT22;35149;51.196;6.204;2022-10-31T13:10:40;21.60;63.00
49132;DHT22;35149;51.196;6.204;2022-10-31T13:13:16;21.60;63.00
49132;DHT22;35149;51.196;6.204;2022-10-31T13:16:09;21.60;62.80
49132;DHT22;35149;51.196;6.204;2022-10-31T13:22:10;21.70;62.80
49132;DHT22;35149;51.196;6.204;2022-10-31T13:24:52;21.70;62.50
49132;DHT22;35149;51.196;6.204;2022-10-31T13:27:25;21.80;62.50
49132;DHT22;35149;51.196;6.204;2022-10-31T13:32:41;21.90;62.30
49132;DHT22;35149;51.196;6.204;2022-10-31T13:35:30;21.90;62.40
49132;DHT22;35149;51.196;6.204;2022-10-31T13:38:28;22.00;61.60
49132;DHT22;35149;51.196;6.204;2022-10-31T13:41:02;22.10;61.20
49132;DHT22;35149;51.196;6.204;2022-10-31T13:46:35;22.20;61.00
49132;DHT22;35149;51.196;6.204;2022-10-31T13:49:03;22.30;60.40
49132;DHT22;35149;51.196;6.204;2022-10-31T13:51:33;22.30;60.70
49132;DHT22;35149;51.196;6.204;2022-10-31T13:54:18;22.40;60.50
49132;DHT22;35149;51.196;6.204;2022-10-31T13:57:16;22.30;59.70
49132;DHT22;35149;51.196;6.204;2022-10-31T13:59:56;22.30;59.80
49132;DHT22;35149;51.196;6.204;2022-10-31T14:02:28;22.40;59.80
49132;DHT22;35149;51.196;6.204;2022-10-31T14:07:54;22.40;59.60
49132;DHT22;35149;51.196;6.204;2022-10-31T14:10:29;22.50;59.60
49132;DHT22;35149;51.196;6.204;2022-10-31T14:13:08;22.50;59.50
49132;DHT22;35149;51.196;6.204;2022-10-31T14:15:43;22.50;59.60
49132;DHT22;35149;51.196;6.204;2022-10-31T14:20:52;22.60;59.70
49132;DHT22;35149;51.196;6.204;2022-10-31T14:26:21;22.80;59.10
49132;DHT22;35149;51.196;6.204;2022-10-31T14:28:58;22.80;58.60
49132;DHT22;35149;51.196;6.204;2022-10-31T14:31:35;22.90;58.90
49132;DHT22;35149;51.196;6.204;2022-10-31T14:39:47;23.00;57.60
49132;DHT22;35149;51.196;6.204;2022-10-31T14:50:58;22.90;57.60
49132;DHT22;35149;51.196;6.204;2022-10-31T14:53:28;22.80;58.00
49132;DHT22;35149;51.196;6.204;2022-10-31T14:55:56;22.80;58.00
49132;DHT22;35149;51.196;6.204;2022-10-31T14:58:38;22.70;58.20
49132;DHT22;35149;51.196;6.204;2022-10-31T15:01:06;22.60;58.10
49132;DHT22;35149;51.196;6.204;2022-10-31T15:03:38;22.60;58.60
49132;DHT22;35149;51.196;6.204;2022-10-31T15:06:21;22.50;58.50
49132;DHT22;35149;51.196;6.204;2022-10-31T15:09:04;22.40;58.70
49132;DHT22;35149;51.196;6.204;2022-10-31T15:11:37;22.40;58.80
49132;DHT22;35149;51.196;6.204;2022-10-31T15:14:23;22.20;58.60
49132;DHT22;35149;51.196;6.204;2022-10-31T15:16:51;22.20;58.50
49132;DHT22;35149;51.196;6.204;2022-10-31T15:19:27;22.10;58.80
49132;DHT22;35149;51.196;6.204;2022-10-31T15:21:56;22.10;58.80
49132;DHT22;35149;51.196;6.204;2022-10-31T15:24:34;22.00;58.80
49132;DHT22;35149;51.196;6.204;2022-10-31T15:27:15;21.90;58.60
49132;DHT22;35149;51.196;6.204;2022-10-31T15:29:55;21.90;58.70
49132;DHT22;35149;51.196;6.204;2022-10-31T15:32:27;21.90;58.80
49132;DHT22;35149;51.196;6.204;2022-10-31T15:34:55;21.80;59.00
49132;DHT22;35149;51.196;6.204;2022-10-31T15:37:26;21.70;59.50
49132;DHT22;35149;51.196;6.204;2022-10-31T15:40:12;21.70;59.50
49132;DHT22;35149;51.196;6.204;2022-10-31T15:42:51;21.60;59.20
49132;DHT22;35149;51.196;6.204;2022-10-31T15:45:27;21.50;59.30
49132;DHT22;35149;51.196;6.204;2022-10-31T15:50:46;21.30;59.90
49132;DHT22;35149;51.196;6.204;2022-10-31T15:53:45;21.20;59.70
49132;DHT22;35149;51.196;6.204;2022-10-31T15:56:24;21.10;59.80
49132;DHT22;35149;51.196;6.204;2022-10-31T15:58:53;21.00;60.20
49132;DHT22;35149;51.196;6.204;2022-10-31T16:01:29;20.80;60.40
49132;DHT22;35149;51.196;6.204;2022-10-31T16:06:39;20.60;60.80
49132;DHT22;35149;51.196;6.204;2022-10-31T16:09:26;20.40;60.90
49132;DHT22;35149;51.196;6.204;2022-10-31T16:11:52;20.30;61.10
49132;DHT22;35149;51.196;6.204;2022-10-31T16:14:27;20.20;61.30
49132;DHT22;35149;51.196;6.204;2022-10-31T16:16:57;20.00;61.40
49132;DHT22;35149;51.196;6.204;2022-10-31T16:19:30;19.90;61.70
49132;DHT22;35149;51.196;6.204;2022-10-31T16:22:06;19.70;61.90
49132;DHT22;35149;51.196;6.204;2022-10-31T16:24:51;19.60;62.20
49132;DHT22;35149;51.196;6.204;2022-10-31T16:27:24;19.50;62.50
49132;DHT22;35149;51.196;6.204;2022-10-31T16:29:58;19.30;62.60
49132;DHT22;35149;51.196;6.204;2022-10-31T16:32:50;19.20;63.70
49132;DHT22;35149;51.196;6.204;2022-10-31T16:35:26;19.10;63.20
49132;DHT22;35149;51.196;6.204;2022-10-31T16:37:53;18.90;63.30
49132;DHT22;35149;51.196;6.204;2022-10-31T16:40:20;18.80;63.20
49132;DHT22;35149;51.196;6.204;2022-10-31T16:42:47;18.70;64.10
49132;DHT22;35149;51.196;6.204;2022-10-31T16:45:22;18.60;64.00
49132;DHT22;35149;51.196;6.204;2022-10-31T16:47:52;18.50;64.60
49132;DHT22;35149;51.196;6.204;2022-10-31T16:50:24;18.40;64.90
49132;DHT22;35149;51.196;6.204;2022-10-31T16:52:54;18.40;65.40
49132;DHT22;35149;51.196;6.204;2022-10-31T16:55:48;18.30;65.40
49132;DHT22;35149;51.196;6.204;2022-10-31T16:58:25;18.20;65.80
49132;DHT22;35149;51.196;6.204;2022-10-31T17:01:07;18.20;66.20
49132;DHT22;35149;51.196;6.204;2022-10-31T17:03:37;18.10;66.40
49132;DHT22;35149;51.196;6.204;2022-10-31T17:06:11;18.10;66.60
49132;DHT22;35149;51.196;6.204;2022-10-31T17:08:41;18.10;66.90
49132;DHT22;35149;51.196;6.204;2022-10-31T17:11:16;18.10;67.00
49132;DHT22;35149;51.196;6.204;2022-10-31T17:13:43;18.10;68.10
49132;DHT22;35149;51.196;6.204;2022-10-31T17:16:12;18.10;67.20
49132;DHT22;35149;51.196;6.204;2022-10-31T17:18:42;18.10;67.40
49132;DHT22;35149;51.196;6.204;2022-10-31T17:21:26;18.10;67.30
49132;DHT22;35149;51.196;6.204;2022-10-31T17:23:54;18.10;68.10
49132;DHT22;35149;51.196;6.204;2022-10-31T17:26:23;18.00;67.20
49132;DHT22;35149;51.196;6.204;2022-10-31T17:28:50;18.10;67.30
49132;DHT22;35149;51.196;6.204;2022-10-31T17:31:26;18.00;67.20
49132;DHT22;35149;51.196;6.204;2022-10-31T17:33:56;18.00;67.50
49132;DHT22;35149;51.196;6.204;2022-10-31T17:36:34;18.00;67.40
49132;DHT22;35149;51.196;6.204;2022-10-31T17:39:03;18.00;67.50
49132;DHT22;35149;51.196;6.204;2022-10-31T17:41:37;18.00;67.50
49132;DHT22;35149;51.196;6.204;2022-10-31T17:44:14;18.00;67.30
49132;DHT22;35149;51.196;6.204;2022-10-31T17:46:43;18.00;67.40
49132;DHT22;35149;51.196;6.204;2022-10-31T17:49:12;18.00;67.40
49132;DHT22;35149;51.196;6.204;2022-10-31T17:51:43;18.00;67.30
49132;DHT22;35149;51.196;6.204;2022-10-31T17:54:10;18.00;67.30
49132;DHT22;35149;51.196;6.204;2022-10-31T17:56:39;18.00;67.20
49132;DHT22;35149;51.196;6.204;2022-10-31T17:59:07;18.00;67.20
49132;DHT22;35149;51.196;6.204;2022-10-31T18:01:34;17.90;67.00
49132;DHT22;35149;51.196;6.204;2022-10-31T18:04:03;17.90;67.00
49132;DHT22;35149;51.196;6.204;2022-10-31T18:06:37;17.90;67.10
49132;DHT22;35149;51.196;6.204;2022-10-31T18:09:06;17.80;67.20
49132;DHT22;35149;51.196;6.204;2022-10-31T18:11:34;17.80;67.20
49132;DHT22;35149;51.196;6.204;2022-10-31T18:14:07;17.80;67.30
49132;DHT22;35149;51.196;6.204;2022-10-31T18:16:35;17.70;67.30
49132;DHT22;35149;51.196;6.204;2022-10-31T18:19:12;17.70;67.40
49132;DHT22;35149;51.196;6.204;2022-10-31T18:21:39;17.70;67.40